sensor_id;sensor_type;location;lat;lon;timestamp;P1;durP1;ratioP1;P2;durP2;ratioP2
27580;SDS011;63557;52.302;7.964;2024-01-11T00:00:19;56.92;;;25.83;;
27580;SDS011;63557;52.302;7.964;2024-01-11T00:05:19;69.65;;;28.35;;
27580;SDS011;63557;52.302;7.964;2024-01-11T00:10:20;64.03;;;28.15;;
27580;SDS011;63557;52.302;7.964;2024-01-11T00:15:20;67.00;;;27.83;;
27580;SDS011;63557;52.302;7.964;2024-01-11T00:20:20;69.95;;;27.00;;
27580;SDS011;63557;52.302;7.964;2024-01-11T00:25:21;65.85;;;26.75;;
27580;SDS011;63557;52.302;7.964;2024-01-11T00:30:22;63.40;;;26.95;;
27580;SDS011;63557;52.302;7.964;2024-01-11T00:35:23;82.80;;;30.98;;
27580;SDS011;63557;52.302;7.964;2024-01-11T00:40:24;68.00;;;27.83;;
27580;SDS011;63557;52.302;7.964;2024-01-11T00:45:24;72.13;;;28.20;;
27580;SDS011;63557;52.302;7.964;2024-01-11T00:50:24;68.97;;;28.60;;
27580;SDS011;63557;52.302;7.964;2024-01-11T00:55:25;76.25;;;28.75;;
27580;SDS011;63557;52.302;7.964;2024-01-11T01:00:25;66.93;;;28.13;;
27580;SDS011;63557;52.302;7.964;2024-01-11T01:05:26;66.55;;;27.23;;
27580;SDS011;63557;52.302;7.964;2024-01-11T01:10:26;69.38;;;28.63;;
27580;SDS011;63557;52.302;7.964;2024-01-11T01:15:26;72.68;;;27.30;;
27580;SDS011;63557;52.302;7.964;2024-01-11T01:20:27;64.10;;;27.98;;
27580;SDS011;63557;52.302;7.964;2024-01-11T01:25:28;73.07;;;28.00;;
27580;SDS011;63557;52.302;7.964;2024-01-11T01:30:28;64.22;;;26.63;;
27580;SDS011;63557;52.302;7.964;2024-01-11T01:35:28;60.25;;;26.30;;
27580;SDS011;63557;52.302;7.964;2024-01-11T01:40:32;64.28;;;28.52;;
27580;SDS011;63557;52.302;7.964;2024-01-11T01:45:32;69.80;;;27.23;;
27580;SDS011;63557;52.302;7.964;2024-01-11T01:50:33;65.10;;;26.83;;
27580;SDS011;63557;52.302;7.964;2024-01-11T01:55:33;57.30;;;25.35;;
27580;SDS011;63557;52.302;7.964;2024-01-11T02:00:34;71.43;;;28.45;;
27580;SDS011;63557;52.302;7.964;2024-01-11T02:05:34;63.00;;;27.00;;
27580;SDS011;63557;52.302;7.964;2024-01-11T02:10:35;61.40;;;25.45;;
27580;SDS011;63557;52.302;7.964;2024-01-11T02:15:35;61.78;;;25.17;;
27580;SDS011;63557;52.302;7.964;2024-01-11T02:20:36;62.85;;;24.98;;
27580;SDS011;63557;52.302;7.964;2024-01-11T02:25:37;65.90;;;26.83;;
27580;SDS011;63557;52.302;7.964;2024-01-11T02:30:37;59.75;;;26.75;;
27580;SDS011;63557;52.302;7.964;2024-01-11T02:35:37;58.65;;;25.58;;
27580;SDS011;63557;52.302;7.964;2024-01-11T02:40:39;66.72;;;26.33;;
27580;SDS011;63557;52.302;7.964;2024-01-11T02:45:40;68.68;;;26.92;;
27580;SDS011;63557;52.302;7.964;2024-01-11T02:50:40;62.35;;;25.75;;
27580;SDS011;63557;52.302;7.964;2024-01-11T02:55:41;64.75;;;26.17;;
27580;SDS011;63557;52.302;7.964;2024-01-11T03:00:41;58.92;;;26.20;;
27580;SDS011;63557;52.302;7.964;2024-01-11T03:05:41;64.75;;;26.10;;
27580;SDS011;63557;52.302;7.964;2024-01-11T03:10:42;63.63;;;26.15;;
27580;SDS011;63557;52.302;7.964;2024-01-11T03:15:42;63.20;;;26.25;;
27580;SDS011;63557;52.302;7.964;2024-01-11T03:20:43;64.22;;;27.95;;
27580;SDS011;63557;52.302;7.964;2024-01-11T03:25:43;64.90;;;27.42;;
27580;SDS011;63557;52.302;7.964;2024-01-11T03:30:44;67.65;;;27.67;;
27580;SDS011;63557;52.302;7.964;2024-01-11T03:35:44;62.72;;;27.75;;
27580;SDS011;63557;52.302;7.964;2024-01-11T03:40:45;67.30;;;27.23;;
27580;SDS011;63557;52.302;7.964;2024-01-11T03:45:45;59.00;;;26.15;;
27580;SDS011;63557;52.302;7.964;2024-01-11T03:50:45;67.90;;;26.67;;
27580;SDS011;63557;52.302;7.964;2024-01-11T03:55:46;67.47;;;26.80;;
27580;SDS011;63557;52.302;7.964;2024-01-11T04:00:46;64.57;;;26.13;;
27580;SDS011;63557;52.302;7.964;2024-01-11T04:05:47;68.15;;;27.88;;
27580;SDS011;63557;52.302;7.964;2024-01-11T04:10:48;66.28;;;28.05;;
27580;SDS011;63557;52.302;7.964;2024-01-11T04:15:49;67.38;;;27.08;;
27580;SDS011;63557;52.302;7.964;2024-01-11T04:20:49;70.25;;;27.33;;
27580;SDS011;63557;52.302;7.964;2024-01-11T04:25:49;70.00;;;27.55;;
27580;SDS011;63557;52.302;7.964;2024-01-11T04:30:51;57.10;;;25.70;;
27580;SDS011;63557;52.302;7.964;2024-01-11T04:35:51;58.90;;;25.20;;
27580;SDS011;63557;52.302;7.964;2024-01-11T04:40:52;56.00;;;24.48;;
27580;SDS011;63557;52.302;7.964;2024-01-11T04:45:52;65.20;;;27.30;;
27580;SDS011;63557;52.302;7.964;2024-01-11T04:50:53;60.55;;;26.33;;
27580;SDS011;63557;52.302;7.964;2024-01-11T04:55:53;64.70;;;26.27;;
27580;SDS011;63557;52.302;7.964;2024-01-11T05:00:53;70.13;;;28.13;;
27580;SDS011;63557;52.302;7.964;2024-01-11T05:05:54;65.47;;;27.20;;
27580;SDS011;63557;52.302;7.964;2024-01-11T05:10:54;67.25;;;26.05;;
27580;SDS011;63557;52.302;7.964;2024-01-11T05:15:55;63.10;;;26.30;;
27580;SDS011;63557;52.302;7.964;2024-01-11T05:20:55;63.47;;;26.65;;
27580;SDS011;63557;52.302;7.964;2024-01-11T05:25:56;57.72;;;27.58;;
27580;SDS011;63557;52.302;7.964;2024-01-11T05:30:56;59.15;;;25.98;;
27580;SDS011;63557;52.302;7.964;2024-01-11T05:35:56;63.70;;;27.40;;
27580;SDS011;63557;52.302;7.964;2024-01-11T05:40:57;66.47;;;28.75;;
27580;SDS011;63557;52.302;7.964;2024-01-11T05:45:57;71.00;;;28.77;;
27580;SDS011;63557;52.302;7.964;2024-01-11T05:50:58;68.50;;;30.23;;
27580;SDS011;63557;52.302;7.964;2024-01-11T05:56:00;70.85;;;29.00;;
27580;SDS011;63557;52.302;7.964;2024-01-11T06:01:00;76.70;;;29.13;;
27580;SDS011;63557;52.302;7.964;2024-01-11T06:06:01;71.00;;;27.17;;
27580;SDS011;63557;52.302;7.964;2024-01-11T06:11:02;58.42;;;26.83;;
27580;SDS011;63557;52.302;7.964;2024-01-11T06:16:04;70.18;;;29.17;;
27580;SDS011;63557;52.302;7.964;2024-01-11T06:21:04;64.53;;;26.90;;
27580;SDS011;63557;52.302;7.964;2024-01-11T06:26:05;67.22;;;27.92;;
27580;SDS011;63557;52.302;7.964;2024-01-11T06:31:06;75.43;;;30.83;;
27580;SDS011;63557;52.302;7.964;2024-01-11T06:36:06;64.72;;;26.75;;
27580;SDS011;63557;52.302;7.964;2024-01-11T06:41:09;68.88;;;30.13;;
27580;SDS011;63557;52.302;7.964;2024-01-11T06:46:10;67.40;;;26.58;;
27580;SDS011;63557;52.302;7.964;2024-01-11T06:51:14;66.50;;;28.23;;
27580;SDS011;63557;52.302;7.964;2024-01-11T06:56:15;70.30;;;27.77;;
27580;SDS011;63557;52.302;7.964;2024-01-11T07:01:15;75.88;;;28.95;;
27580;SDS011;63557;52.302;7.964;2024-01-11T07:06:15;63.42;;;27.88;;
27580;SDS011;63557;52.302;7.964;2024-01-11T07:11:16;66.43;;;27.20;;
27580;SDS011;63557;52.302;7.964;2024-01-11T07:16:16;65.53;;;28.63;;
27580;SDS011;63557;52.302;7.964;2024-01-11T07:21:21;65.63;;;29.05;;
27580;SDS011;63557;52.302;7.964;2024-01-11T07:26:23;69.65;;;28.05;;
27580;SDS011;63557;52.302;7.964;2024-01-11T07:31:24;76.07;;;32.00;;
27580;SDS011;63557;52.302;7.964;2024-01-11T07:36:24;122.28;;;54.17;;
27580;SDS011;63557;52.302;7.964;2024-01-11T07:41:25;90.88;;;36.42;;
27580;SDS011;63557;52.302;7.964;2024-01-11T07:46:25;67.55;;;27.77;;
27580;SDS011;63557;52.302;7.964;2024-01-11T07:51:26;76.50;;;32.75;;
27580;SDS011;63557;52.302;7.964;2024-01-11T07:56:27;76.20;;;30.10;;
27580;SDS011;63557;52.302;7.964;2024-01-11T08:01:27;71.22;;;29.75;;
27580;SDS011;63557;52.302;7.964;2024-01-11T08:06:27;94.28;;;38.75;;
27580;SDS011;63557;52.302;7.964;2024-01-11T08:11:28;71.35;;;30.02;;
27580;SDS011;63557;52.302;7.964;2024-01-11T08:16:29;77.75;;;35.28;;
27580;SDS011;63557;52.302;7.964;2024-01-11T08:21:29;68.13;;;29.17;;
27580;SDS011;63557;52.302;7.964;2024-01-11T08:26:29;75.28;;;33.28;;
27580;SDS011;63557;52.302;7.964;2024-01-11T08:31:31;80.03;;;33.28;;
27580;SDS011;63557;52.302;7.964;2024-01-11T08:36:31;72.05;;;31.85;;
27580;SDS011;63557;52.302;7.964;2024-01-11T08:41:34;60.75;;;27.52;;
27580;SDS011;63557;52.302;7.964;2024-01-11T08:46:38;72.68;;;28.17;;
27580;SDS011;63557;52.302;7.964;2024-01-11T08:51:38;73.70;;;31.45;;
27580;SDS011;63557;52.302;7.964;2024-01-11T08:56:38;74.32;;;29.88;;
27580;SDS011;63557;52.302;7.964;2024-01-11T09:01:41;79.25;;;29.95;;
27580;SDS011;63557;52.302;7.964;2024-01-11T09:06:41;76.80;;;29.40;;
27580;SDS011;63557;52.302;7.964;2024-01-11T09:11:41;79.82;;;32.20;;
27580;SDS011;63557;52.302;7.964;2024-01-11T09:16:42;74.00;;;30.23;;
27580;SDS011;63557;52.302;7.964;2024-01-11T09:21:44;70.18;;;29.02;;
27580;SDS011;63557;52.302;7.964;2024-01-11T09:26:45;98.90;;;32.95;;
27580;SDS011;63557;52.302;7.964;2024-01-11T09:31:45;86.70;;;31.15;;
27580;SDS011;63557;52.302;7.964;2024-01-11T09:36:46;85.10;;;31.63;;
27580;SDS011;63557;52.302;7.964;2024-01-11T09:41:51;91.00;;;33.42;;
27580;SDS011;63557;52.302;7.964;2024-01-11T09:46:52;91.55;;;33.95;;
27580;SDS011;63557;52.302;7.964;2024-01-11T09:51:53;93.30;;;35.65;;
27580;SDS011;63557;52.302;7.964;2024-01-11T09:56:58;90.70;;;34.78;;
27580;SDS011;63557;52.302;7.964;2024-01-11T10:01:59;101.93;;;34.67;;
27580;SDS011;63557;52.302;7.964;2024-01-11T10:07:00;83.30;;;34.30;;
27580;SDS011;63557;52.302;7.964;2024-01-11T10:12:03;86.78;;;32.55;;
27580;SDS011;63557;52.302;7.964;2024-01-11T10:17:03;85.70;;;32.70;;
27580;SDS011;63557;52.302;7.964;2024-01-11T10:22:04;77.10;;;31.10;;
27580;SDS011;63557;52.302;7.964;2024-01-11T10:27:05;86.35;;;32.28;;
27580;SDS011;63557;52.302;7.964;2024-01-11T10:32:08;83.03;;;31.90;;
27580;SDS011;63557;52.302;7.964;2024-01-11T10:37:09;91.35;;;35.13;;
27580;SDS011;63557;52.302;7.964;2024-01-11T10:42:10;89.00;;;34.78;;
27580;SDS011;63557;52.302;7.964;2024-01-11T10:47:12;89.57;;;35.15;;
27580;SDS011;63557;52.302;7.964;2024-01-11T10:52:13;102.43;;;36.67;;
27580;SDS011;63557;52.302;7.964;2024-01-11T10:57:14;95.90;;;36.40;;
27580;SDS011;63557;52.302;7.964;2024-01-11T11:02:14;93.90;;;33.97;;
27580;SDS011;63557;52.302;7.964;2024-01-11T11:07:15;95.03;;;36.30;;
27580;SDS011;63557;52.302;7.964;2024-01-11T11:12:16;96.20;;;36.92;;
27580;SDS011;63557;52.302;7.964;2024-01-11T11:17:17;91.70;;;36.42;;
27580;SDS011;63557;52.302;7.964;2024-01-11T11:22:17;94.63;;;36.83;;
27580;SDS011;63557;52.302;7.964;2024-01-11T11:27:19;101.72;;;36.95;;
27580;SDS011;63557;52.302;7.964;2024-01-11T11:32:26;101.90;;;36.55;;
27580;SDS011;63557;52.302;7.964;2024-01-11T11:37:38;98.43;;;36.53;;
27580;SDS011;63557;52.302;7.964;2024-01-11T11:42:39;99.78;;;38.22;;
27580;SDS011;63557;52.302;7.964;2024-01-11T11:47:40;110.63;;;38.25;;
27580;SDS011;63557;52.302;7.964;2024-01-11T11:52:42;104.68;;;40.17;;
27580;SDS011;63557;52.302;7.964;2024-01-11T11:57:44;101.72;;;37.90;;
27580;SDS011;63557;52.302;7.964;2024-01-11T12:02:46;91.03;;;37.67;;
27580;SDS011;63557;52.302;7.964;2024-01-11T12:07:47;96.05;;;35.83;;
27580;SDS011;63557;52.302;7.964;2024-01-11T12:12:48;94.90;;;36.42;;
27580;SDS011;63557;52.302;7.964;2024-01-11T12:17:48;101.63;;;35.63;;
27580;SDS011;63557;52.302;7.964;2024-01-11T12:22:49;100.32;;;38.60;;
27580;SDS011;63557;52.302;7.964;2024-01-11T12:27:49;92.38;;;33.50;;
27580;SDS011;63557;52.302;7.964;2024-01-11T12:32:50;99.15;;;34.75;;
27580;SDS011;63557;52.302;7.964;2024-01-11T12:42:54;91.55;;;32.47;;
27580;SDS011;63557;52.302;7.964;2024-01-11T12:47:54;94.97;;;32.63;;
27580;SDS011;63557;52.302;7.964;2024-01-11T12:58:21;94.30;;;35.67;;
27580;SDS011;63557;52.302;7.964;2024-01-11T13:03:22;93.13;;;31.20;;
27580;SDS011;63557;52.302;7.964;2024-01-11T13:08:23;86.25;;;33.72;;
27580;SDS011;63557;52.302;7.964;2024-01-11T13:13:24;80.07;;;30.27;;
27580;SDS011;63557;52.302;7.964;2024-01-11T13:18:24;90.70;;;30.85;;
27580;SDS011;63557;52.302;7.964;2024-01-11T13:23:25;87.97;;;32.03;;
27580;SDS011;63557;52.302;7.964;2024-01-11T13:28:25;85.88;;;31.10;;
27580;SDS011;63557;52.302;7.964;2024-01-11T13:33:27;96.07;;;31.38;;
27580;SDS011;63557;52.302;7.964;2024-01-11T13:38:27;77.90;;;30.08;;
27580;SDS011;63557;52.302;7.964;2024-01-11T13:43:27;89.88;;;30.55;;
27580;SDS011;63557;52.302;7.964;2024-01-11T13:48:28;93.53;;;31.25;;
27580;SDS011;63557;52.302;7.964;2024-01-11T13:53:28;95.47;;;33.78;;
27580;SDS011;63557;52.302;7.964;2024-01-11T13:58:29;91.20;;;31.48;;
27580;SDS011;63557;52.302;7.964;2024-01-11T14:03:29;85.70;;;31.60;;
27580;SDS011;63557;52.302;7.964;2024-01-11T14:08:30;87.88;;;32.47;;
27580;SDS011;63557;52.302;7.964;2024-01-11T14:13:30;94.22;;;33.53;;
27580;SDS011;63557;52.302;7.964;2024-01-11T14:18:31;96.18;;;33.88;;
27580;SDS011;63557;52.302;7.964;2024-01-11T14:23:31;85.22;;;33.13;;
27580;SDS011;63557;52.302;7.964;2024-01-11T14:28:32;85.50;;;34.50;;
27580;SDS011;63557;52.302;7.964;2024-01-11T14:33:32;96.60;;;34.40;;
27580;SDS011;63557;52.302;7.964;2024-01-11T14:38:33;108.65;;;37.38;;
27580;SDS011;63557;52.302;7.964;2024-01-11T14:43:33;94.53;;;33.65;;
27580;SDS011;63557;52.302;7.964;2024-01-11T14:48:33;95.80;;;35.40;;
27580;SDS011;63557;52.302;7.964;2024-01-11T14:53:34;99.15;;;37.03;;
27580;SDS011;63557;52.302;7.964;2024-01-11T14:58:34;93.10;;;37.75;;
27580;SDS011;63557;52.302;7.964;2024-01-11T15:03:35;91.55;;;35.88;;
27580;SDS011;63557;52.302;7.964;2024-01-11T15:08:35;102.65;;;37.65;;
27580;SDS011;63557;52.302;7.964;2024-01-11T15:13:35;95.10;;;34.67;;
27580;SDS011;63557;52.302;7.964;2024-01-11T15:18:36;91.18;;;32.75;;
27580;SDS011;63557;52.302;7.964;2024-01-11T15:23:36;93.95;;;35.15;;
27580;SDS011;63557;52.302;7.964;2024-01-11T15:28:37;102.10;;;35.75;;
27580;SDS011;63557;52.302;7.964;2024-01-11T15:33:37;109.30;;;43.03;;
27580;SDS011;63557;52.302;7.964;2024-01-11T15:38:39;87.35;;;35.30;;
27580;SDS011;63557;52.302;7.964;2024-01-11T15:43:39;93.57;;;36.13;;
27580;SDS011;63557;52.302;7.964;2024-01-11T15:48:39;97.07;;;34.28;;
27580;SDS011;63557;52.302;7.964;2024-01-11T15:53:40;108.68;;;37.75;;
27580;SDS011;63557;52.302;7.964;2024-01-11T15:58:41;106.45;;;37.38;;
27580;SDS011;63557;52.302;7.964;2024-01-11T16:03:43;98.00;;;35.85;;
27580;SDS011;63557;52.302;7.964;2024-01-11T16:08:44;96.82;;;36.03;;
27580;SDS011;63557;52.302;7.964;2024-01-11T16:13:47;99.38;;;37.38;;
27580;SDS011;63557;52.302;7.964;2024-01-11T16:18:48;105.03;;;40.10;;
27580;SDS011;63557;52.302;7.964;2024-01-11T16:23:49;129.35;;;44.15;;
27580;SDS011;63557;52.302;7.964;2024-01-11T16:28:49;114.60;;;42.22;;
27580;SDS011;63557;52.302;7.964;2024-01-11T16:33:50;144.13;;;51.80;;
27580;SDS011;63557;52.302;7.964;2024-01-11T16:38:51;125.18;;;46.83;;
27580;SDS011;63557;52.302;7.964;2024-01-11T16:43:52;106.25;;;41.67;;
27580;SDS011;63557;52.302;7.964;2024-01-11T16:48:52;101.47;;;40.33;;
27580;SDS011;63557;52.302;7.964;2024-01-11T16:53:52;105.15;;;36.72;;
27580;SDS011;63557;52.302;7.964;2024-01-11T16:58:53;99.43;;;36.60;;
27580;SDS011;63557;52.302;7.964;2024-01-11T17:03:53;111.30;;;40.88;;
27580;SDS011;63557;52.302;7.964;2024-01-11T17:08:54;117.13;;;41.88;;
27580;SDS011;63557;52.302;7.964;2024-01-11T17:13:55;111.45;;;43.45;;
27580;SDS011;63557;52.302;7.964;2024-01-11T17:18:56;109.72;;;41.97;;
27580;SDS011;63557;52.302;7.964;2024-01-11T17:23:56;108.13;;;42.55;;
27580;SDS011;63557;52.302;7.964;2024-01-11T17:28:57;108.50;;;43.85;;
27580;SDS011;63557;52.302;7.964;2024-01-11T17:33:57;115.22;;;44.90;;
27580;SDS011;63557;52.302;7.964;2024-01-11T17:38:58;109.53;;;41.83;;
27580;SDS011;63557;52.302;7.964;2024-01-11T17:43:59;102.65;;;41.90;;
27580;SDS011;63557;52.302;7.964;2024-01-11T17:49:00;110.82;;;42.20;;
27580;SDS011;63557;52.302;7.964;2024-01-11T17:54:01;107.40;;;43.30;;
27580;SDS011;63557;52.302;7.964;2024-01-11T17:59:01;227.77;;;106.63;;
27580;SDS011;63557;52.302;7.964;2024-01-11T18:04:02;113.75;;;43.85;;
27580;SDS011;63557;52.302;7.964;2024-01-11T18:09:03;148.73;;;57.70;;
27580;SDS011;63557;52.302;7.964;2024-01-11T18:14:04;113.43;;;44.53;;
27580;SDS011;63557;52.302;7.964;2024-01-11T18:19:04;115.10;;;45.35;;
27580;SDS011;63557;52.302;7.964;2024-01-11T18:24:07;120.88;;;48.50;;
27580;SDS011;63557;52.302;7.964;2024-01-11T18:29:07;119.75;;;48.35;;
27580;SDS011;63557;52.302;7.964;2024-01-11T18:34:08;133.05;;;54.63;;
27580;SDS011;63557;52.302;7.964;2024-01-11T18:39:08;125.20;;;50.70;;
27580;SDS011;63557;52.302;7.964;2024-01-11T18:44:10;130.80;;;49.92;;
27580;SDS011;63557;52.302;7.964;2024-01-11T18:49:11;126.03;;;46.25;;
27580;SDS011;63557;52.302;7.964;2024-01-11T18:54:11;114.38;;;44.30;;
27580;SDS011;63557;52.302;7.964;2024-01-11T18:59:13;131.63;;;50.58;;
27580;SDS011;63557;52.302;7.964;2024-01-11T19:04:14;128.07;;;47.53;;
27580;SDS011;63557;52.302;7.964;2024-01-11T19:09:14;128.20;;;47.10;;
27580;SDS011;63557;52.302;7.964;2024-01-11T19:14:15;126.72;;;49.42;;
27580;SDS011;63557;52.302;7.964;2024-01-11T19:19:16;134.75;;;50.97;;
27580;SDS011;63557;52.302;7.964;2024-01-11T19:24:16;127.63;;;46.38;;
27580;SDS011;63557;52.302;7.964;2024-01-11T19:29:17;124.20;;;48.13;;
27580;SDS011;63557;52.302;7.964;2024-01-11T19:34:17;137.88;;;49.30;;
27580;SDS011;63557;52.302;7.964;2024-01-11T19:39:17;138.40;;;49.38;;
27580;SDS011;63557;52.302;7.964;2024-01-11T19:44:19;133.73;;;48.50;;
27580;SDS011;63557;52.302;7.964;2024-01-11T19:49:21;146.75;;;51.92;;
27580;SDS011;63557;52.302;7.964;2024-01-11T19:54:21;127.95;;;48.63;;
27580;SDS011;63557;52.302;7.964;2024-01-11T19:59:21;141.75;;;51.53;;
27580;SDS011;63557;52.302;7.964;2024-01-11T20:04:24;153.85;;;58.20;;
27580;SDS011;63557;52.302;7.964;2024-01-11T20:09:24;149.48;;;49.70;;
27580;SDS011;63557;52.302;7.964;2024-01-11T20:14:25;146.80;;;50.30;;
27580;SDS011;63557;52.302;7.964;2024-01-11T20:19:27;142.65;;;50.33;;
27580;SDS011;63557;52.302;7.964;2024-01-11T20:24:27;127.57;;;47.50;;
27580;SDS011;63557;52.302;7.964;2024-01-11T20:29:27;145.63;;;49.97;;
27580;SDS011;63557;52.302;7.964;2024-01-11T20:34:28;131.32;;;48.65;;
27580;SDS011;63557;52.302;7.964;2024-01-11T20:39:28;133.30;;;49.47;;
27580;SDS011;63557;52.302;7.964;2024-01-11T20:44:29;152.15;;;49.58;;
27580;SDS011;63557;52.302;7.964;2024-01-11T20:49:29;137.20;;;45.78;;
27580;SDS011;63557;52.302;7.964;2024-01-11T20:54:30;157.18;;;52.45;;
27580;SDS011;63557;52.302;7.964;2024-01-11T20:59:30;148.40;;;48.75;;
27580;SDS011;63557;52.302;7.964;2024-01-11T21:04:31;147.30;;;48.20;;
27580;SDS011;63557;52.302;7.964;2024-01-11T21:09:32;155.27;;;50.70;;
27580;SDS011;63557;52.302;7.964;2024-01-11T21:14:32;153.05;;;49.78;;
27580;SDS011;63557;52.302;7.964;2024-01-11T21:19:33;146.77;;;50.38;;
27580;SDS011;63557;52.302;7.964;2024-01-11T21:24:33;163.73;;;51.65;;
27580;SDS011;63557;52.302;7.964;2024-01-11T21:29:33;152.93;;;51.67;;
27580;SDS011;63557;52.302;7.964;2024-01-11T21:34:34;139.38;;;51.08;;
27580;SDS011;63557;52.302;7.964;2024-01-11T21:39:34;143.43;;;50.00;;
27580;SDS011;63557;52.302;7.964;2024-01-11T21:44:35;146.68;;;49.10;;
27580;SDS011;63557;52.302;7.964;2024-01-11T21:49:35;157.57;;;50.85;;
27580;SDS011;63557;52.302;7.964;2024-01-11T21:54:36;155.50;;;51.90;;
27580;SDS011;63557;52.302;7.964;2024-01-11T21:59:36;145.35;;;51.75;;
27580;SDS011;63557;52.302;7.964;2024-01-11T22:04:37;152.82;;;51.20;;
27580;SDS011;63557;52.302;7.964;2024-01-11T22:09:37;139.90;;;50.25;;
27580;SDS011;63557;52.302;7.964;2024-01-11T22:14:37;157.82;;;52.20;;
27580;SDS011;63557;52.302;7.964;2024-01-11T22:19:39;154.75;;;50.10;;
27580;SDS011;63557;52.302;7.964;2024-01-11T22:24:40;154.55;;;50.55;;
27580;SDS011;63557;52.302;7.964;2024-01-11T22:29:40;155.43;;;53.47;;
27580;SDS011;63557;52.302;7.964;2024-01-11T22:34:40;151.73;;;54.47;;
27580;SDS011;63557;52.302;7.964;2024-01-11T22:39:41;163.50;;;55.97;;
27580;SDS011;63557;52.302;7.964;2024-01-11T22:44:43;171.93;;;55.40;;
27580;SDS011;63557;52.302;7.964;2024-01-11T22:49:43;156.32;;;53.88;;
27580;SDS011;63557;52.302;7.964;2024-01-11T22:54:44;172.73;;;55.47;;
27580;SDS011;63557;52.302;7.964;2024-01-11T22:59:44;177.57;;;56.40;;
27580;SDS011;63557;52.302;7.964;2024-01-11T23:04:45;179.40;;;57.45;;
27580;SDS011;63557;52.302;7.964;2024-01-11T23:09:45;177.27;;;56.53;;
27580;SDS011;63557;52.302;7.964;2024-01-11T23:14:46;172.70;;;54.95;;
27580;SDS011;63557;52.302;7.964;2024-01-11T23:19:47;183.32;;;56.95;;
27580;SDS011;63557;52.302;7.964;2024-01-11T23:24:47;187.20;;;56.22;;
27580;SDS011;63557;52.302;7.964;2024-01-11T23:29:47;182.88;;;54.13;;
27580;SDS011;63557;52.302;7.964;2024-01-11T23:34:48;189.25;;;58.20;;
27580;SDS011;63557;52.302;7.964;2024-01-11T23:39:48;186.57;;;54.50;;
27580;SDS011;63557;52.302;7.964;2024-01-11T23:44:48;193.57;;;57.88;;
27580;SDS011;63557;52.302;7.964;2024-01-11T23:49:49;186.40;;;56.03;;
27580;SDS011;63557;52.302;7.964;2024-01-11T23:54:49;201.50;;;57.10;;
27580;SDS011;63557;52.302;7.964;2024-01-11T23:59:50;196.75;;;57.97;;
